createdAt,value
2022-12-25T00:01:33.476Z,97.53
2022-12-25T00:04:01.116Z,97.53
2022-12-25T00:06:28.863Z,97.87
2022-12-25T00:08:56.393Z,97.32
2022-12-25T00:11:24.010Z,98.08
2022-12-25T00:13:51.563Z,97.99
2022-12-25T00:16:22.436Z,97.67
2022-12-25T00:18:51.557Z,97.72
2022-12-25T00:21:20.983Z,97.92
2022-12-25T00:23:53.262Z,97.47
2022-12-25T00:26:21.293Z,97.21
2022-12-25T00:28:53.001Z,97.39
2022-12-25T00:31:21.719Z,97.86
2022-12-25T00:33:50.724Z,97.43
2022-12-25T00:36:20.545Z,97.42
2022-12-25T00:38:48.400Z,97.73
2022-12-25T00:41:42.411Z,97.02
2022-12-25T00:44:13.748Z,96.89
2022-12-25T00:46:43.019Z,97.72
2022-12-25T00:49:11.678Z,97.67
2022-12-25T00:51:39.540Z,97.12
2022-12-25T00:54:07.624Z,97.47
2022-12-25T00:56:35.165Z,97.13
2022-12-25T00:59:02.843Z,97.31
2022-12-25T01:01:30.681Z,97.32
2022-12-25T01:03:58.874Z,97.65
2022-12-25T01:06:26.646Z,97.67
2022-12-25T01:09:12.796Z,97.87
2022-12-25T01:11:40.792Z,97.70
2022-12-25T01:14:08.683Z,97.44
2022-12-25T01:16:36.466Z,98.16
2022-12-25T01:19:04.494Z,98.06
2022-12-25T01:21:32.532Z,98.36
2022-12-25T01:24:00.167Z,97.78
2022-12-25T01:26:28.232Z,98.31
2022-12-25T01:28:55.734Z,97.83
2022-12-25T01:31:24.736Z,97.56
2022-12-25T01:33:53.189Z,98.41
2022-12-25T01:36:24.092Z,98.38
2022-12-25T01:38:53.240Z,97.71
2022-12-25T01:41:24.506Z,97.53
2022-12-25T01:44:06.064Z,97.78
2022-12-25T01:46:34.688Z,97.68
2022-12-25T01:49:06.691Z,97.53
2022-12-25T01:51:40.278Z,97.86
2022-12-25T01:54:15.355Z,98.03
2022-12-25T01:56:45.886Z,98.20
2022-12-25T01:59:17.013Z,98.16
2022-12-25T02:01:44.924Z,98.21
2022-12-25T02:04:38.852Z,98.03
2022-12-25T02:07:07.773Z,98.40
2022-12-25T02:09:36.922Z,98.06
2022-12-25T02:12:05.834Z,98.06
2022-12-25T02:14:35.602Z,98.25
2022-12-25T02:17:06.132Z,98.60
2022-12-25T02:19:52.642Z,97.96
2022-12-25T02:22:42.547Z,98.21
2022-12-25T02:25:28.352Z,98.58
2022-12-25T02:27:59.014Z,98.35
2022-12-25T02:30:31.077Z,98.04
2022-12-25T02:33:27.997Z,97.84
2022-12-25T02:35:57.081Z,97.88
2022-12-25T02:38:36.783Z,97.83
2022-12-25T02:41:15.725Z,97.84
2022-12-25T02:44:05.679Z,97.55
2022-12-25T02:46:52.373Z,97.56
2022-12-25T02:49:42.098Z,97.84
2022-12-25T02:52:31.761Z,98.25
2022-12-25T02:55:24.045Z,98.19
2022-12-25T02:58:14.017Z,98.30
2022-12-25T03:01:05.188Z,98.64
2022-12-25T03:03:56.197Z,98.27
2022-12-25T03:06:44.084Z,98.63
2022-12-25T03:09:40.655Z,98.73
2022-12-25T03:12:36.790Z,98.29
2022-12-25T03:15:26.619Z,98.25
2022-12-25T03:17:57.310Z,98.33
2022-12-25T03:20:44.538Z,98.78
2022-12-25T03:23:34.150Z,98.64
2022-12-25T03:26:20.543Z,98.24
2022-12-25T03:28:48.185Z,98.89
2022-12-25T03:31:25.271Z,98.87
2022-12-25T03:34:14.491Z,98.92
2022-12-25T03:37:03.314Z,98.30
2022-12-25T03:39:57.155Z,98.67
2022-12-25T03:42:52.247Z,98.99
2022-12-25T03:46:12.967Z,98.75
2022-12-25T03:49:01.788Z,98.84
2022-12-25T03:51:50.873Z,98.98
2022-12-25T03:54:43.125Z,99.01
2022-12-25T03:57:31.235Z,99.41
2022-12-25T04:00:17.403Z,99.01
2022-12-25T04:03:04.005Z,99.27
2022-12-25T04:05:50.109Z,98.91
2022-12-25T04:08:36.308Z,99.34
2022-12-25T04:11:22.518Z,99.64
2022-12-25T04:14:08.593Z,99.13
2022-12-25T04:16:55.435Z,99.37
2022-12-25T04:19:41.586Z,99.71
2022-12-25T04:22:27.739Z,99.45
2022-12-25T04:25:14.042Z,99.11
2022-12-25T04:28:00.110Z,99.19
2022-12-25T04:30:46.279Z,99.26
2022-12-25T04:33:32.355Z,99.54
2022-12-25T04:36:12.618Z,99.35
2022-12-25T04:38:41.402Z,99.42
2022-12-25T04:41:11.733Z,99.69
2022-12-25T04:43:39.432Z,98.97
2022-12-25T04:46:07.237Z,98.46
2022-12-25T04:48:36.155Z,99.61
2022-12-25T04:51:24.945Z,99.08
2022-12-25T04:53:53.697Z,98.93
2022-12-25T04:56:21.964Z,99.08
2022-12-25T04:58:49.951Z,98.46
2022-12-25T05:01:17.787Z,98.77
2022-12-25T05:03:45.603Z,98.68
2022-12-25T05:06:13.278Z,99.05
2022-12-25T05:08:41.346Z,98.90
2022-12-25T05:11:12.638Z,98.60
2022-12-25T05:13:40.736Z,98.40
2022-12-25T05:16:13.779Z,98.85
2022-12-25T05:18:41.425Z,98.93
2022-12-25T05:21:10.780Z,99.05
2022-12-25T05:23:39.018Z,99.08
2022-12-25T05:26:08.031Z,98.98
2022-12-25T05:28:35.921Z,98.78
2022-12-25T05:31:03.719Z,99.35
2022-12-25T05:33:31.600Z,99.43
2022-12-25T05:36:03.623Z,99.35
2022-12-25T05:38:31.308Z,98.62
2022-12-25T05:40:58.989Z,99.17
2022-12-25T05:43:27.276Z,98.76
2022-12-25T05:45:55.034Z,98.92
2022-12-25T05:48:22.718Z,98.55
2022-12-25T05:50:50.347Z,98.33
2022-12-25T05:53:18.034Z,98.04
2022-12-25T05:55:45.672Z,99.23
2022-12-25T05:58:14.034Z,98.91
2022-12-25T06:00:43.857Z,98.71
2022-12-25T06:03:11.543Z,98.19
2022-12-25T06:05:39.858Z,98.84
2022-12-25T06:08:07.479Z,98.91
2022-12-25T06:10:36.033Z,98.18
2022-12-25T06:13:04.111Z,97.88
2022-12-25T06:15:32.304Z,98.83
2022-12-25T06:18:00.638Z,98.64
2022-12-25T06:20:28.477Z,98.11
2022-12-25T06:22:56.150Z,98.73
2022-12-25T06:25:23.681Z,98.27
2022-12-25T06:27:51.247Z,98.24
2022-12-25T06:30:18.964Z,98.86
2022-12-25T06:32:46.545Z,98.98
2022-12-25T06:35:14.238Z,98.71
2022-12-25T06:37:41.810Z,98.65
2022-12-25T06:40:09.654Z,98.52
2022-12-25T06:42:37.269Z,98.38
2022-12-25T06:45:05.404Z,98.80
2022-12-25T06:47:33.077Z,98.85
2022-12-25T06:50:00.759Z,98.38
2022-12-25T06:52:28.543Z,97.93
2022-12-25T06:54:56.045Z,98.28
2022-12-25T06:57:23.935Z,98.13
2022-12-25T06:59:55.350Z,98.34
2022-12-25T07:02:24.376Z,98.28
2022-12-25T07:04:53.299Z,97.70
2022-12-25T07:07:23.046Z,97.85
2022-12-25T07:09:50.630Z,97.40
2022-12-25T07:12:20.917Z,97.87
2022-12-25T07:14:50.196Z,97.86
2022-12-25T07:17:19.879Z,97.70
2022-12-25T07:19:48.189Z,97.78
2022-12-25T07:22:16.234Z,97.95
2022-12-25T07:24:43.911Z,98.27
2022-12-25T07:27:11.737Z,97.70
2022-12-25T07:29:39.511Z,98.07
2022-12-25T07:32:07.331Z,98.46
2022-12-25T07:34:34.969Z,98.12
2022-12-25T07:37:02.731Z,97.95
2022-12-25T07:39:30.379Z,97.96
2022-12-25T07:41:57.919Z,97.68
2022-12-25T07:44:28.251Z,98.21
2022-12-25T07:46:55.816Z,97.66
2022-12-25T07:49:23.468Z,98.01
2022-12-25T07:51:51.044Z,98.38
2022-12-25T07:54:18.625Z,97.50
2022-12-25T07:56:46.600Z,98.36
2022-12-25T07:59:14.245Z,98.28
2022-12-25T08:01:42.042Z,97.96
2022-12-25T08:04:11.749Z,97.71
2022-12-25T08:06:39.436Z,97.64
2022-12-25T08:09:12.924Z,98.63
2022-12-25T08:11:45.720Z,98.19
2022-12-25T08:14:13.649Z,98.16
2022-12-25T08:16:42.366Z,98.18
2022-12-25T08:19:10.870Z,98.62
2022-12-25T08:21:38.933Z,98.81
2022-12-25T08:24:06.793Z,97.89
2022-12-25T08:26:34.483Z,98.58
2022-12-25T08:29:02.383Z,97.72
2022-12-25T08:31:30.376Z,97.79
2022-12-25T08:33:58.956Z,98.31
2022-12-25T08:36:27.330Z,97.71
2022-12-25T08:39:02.186Z,98.30
2022-12-25T08:41:36.608Z,97.88
2022-12-25T08:44:04.954Z,98.68
2022-12-25T08:46:32.596Z,98.85
2022-12-25T08:49:00.326Z,98.91
2022-12-25T08:51:27.847Z,98.55
2022-12-25T08:53:59.883Z,98.54
2022-12-25T08:56:28.635Z,98.26
2022-12-25T08:58:56.172Z,98.31
2022-12-25T09:01:23.902Z,98.73
2022-12-25T09:03:51.588Z,98.58
2022-12-25T09:06:19.235Z,98.61
2022-12-25T09:08:49.437Z,98.64
2022-12-25T09:11:18.915Z,98.88
2022-12-25T09:13:47.350Z,98.28
2022-12-25T09:16:20.594Z,98.95
2022-12-25T09:18:48.569Z,98.81
2022-12-25T09:21:17.096Z,99.43
2022-12-25T09:23:45.144Z,98.44
2022-12-25T09:26:15.334Z,98.87
2022-12-25T09:28:50.336Z,98.11
2022-12-25T09:31:21.642Z,98.59
2022-12-25T09:33:50.498Z,98.41
2022-12-25T09:36:18.355Z,97.87
2022-12-25T09:38:46.097Z,97.14
2022-12-25T09:41:17.044Z,97.15
2022-12-25T09:43:53.006Z,97.45
2022-12-25T09:46:24.688Z,97.20
2022-12-25T09:49:18.832Z,97.52
2022-12-25T09:51:52.027Z,97.99
2022-12-25T09:54:26.629Z,97.86
2022-12-25T09:56:54.259Z,97.83
2022-12-25T09:59:25.782Z,97.36
2022-12-25T10:02:30.832Z,96.89
2022-12-25T10:05:15.542Z,96.93
2022-12-25T10:08:13.507Z,97.22
2022-12-25T10:10:55.899Z,97.01
2022-12-25T10:13:45.331Z,97.00
2022-12-25T10:16:27.947Z,97.43
2022-12-25T10:18:55.462Z,97.39
2022-12-25T10:21:23.999Z,97.32
2022-12-25T10:24:11.239Z,97.64
2022-12-25T10:26:39.078Z,97.47
2022-12-25T10:29:14.330Z,97.50
2022-12-25T10:31:46.053Z,97.73
2022-12-25T10:34:15.169Z,97.34
2022-12-25T10:36:45.565Z,97.61
2022-12-25T10:39:18.511Z,97.61
2022-12-25T10:42:04.496Z,97.10
2022-12-25T10:44:33.331Z,97.92
2022-12-25T10:47:03.012Z,97.47
2022-12-25T10:49:34.514Z,98.33
2022-12-25T10:52:03.936Z,98.10
2022-12-25T10:54:35.730Z,98.04
2022-12-25T10:57:13.267Z,98.32
2022-12-25T10:59:46.552Z,97.43
2022-12-25T11:02:29.439Z,97.36
2022-12-25T11:05:07.540Z,97.63
2022-12-25T11:07:51.379Z,97.48
2022-12-25T11:10:24.745Z,97.97
2022-12-25T11:12:53.933Z,97.38
2022-12-25T11:15:43.551Z,97.82
2022-12-25T11:18:23.269Z,97.34
2022-12-25T11:20:59.603Z,97.60
2022-12-25T11:23:29.261Z,97.21
2022-12-25T11:25:59.958Z,96.90
2022-12-25T11:28:29.968Z,96.57
2022-12-25T11:31:06.372Z,96.69
2022-12-25T11:33:42.953Z,96.39
2022-12-25T11:36:20.514Z,96.92
2022-12-25T11:38:48.148Z,96.88
2022-12-25T11:41:20.833Z,96.07
2022-12-25T11:43:56.035Z,96.11
2022-12-25T11:46:42.975Z,96.24
2022-12-25T11:49:17.087Z,95.81
2022-12-25T11:51:47.450Z,96.52
2022-12-25T11:54:33.855Z,96.37
2022-12-25T11:57:04.597Z,96.28
2022-12-25T11:59:37.397Z,96.32
2022-12-25T12:02:36.849Z,96.24
2022-12-25T12:05:44.969Z,96.00
2022-12-25T12:08:14.005Z,95.37
2022-12-25T12:11:18.358Z,93.75
2022-12-25T12:14:53.369Z,92.42
2022-12-25T12:17:21.149Z,92.05
2022-12-25T12:19:48.741Z,91.94
2022-12-25T12:22:23.454Z,90.75
2022-12-25T12:25:18.207Z,89.74
2022-12-25T12:27:45.948Z,89.78
2022-12-25T12:30:29.485Z,87.49
2022-12-25T12:33:01.805Z,87.53
2022-12-25T12:35:36.202Z,87.09
2022-12-25T12:38:20.536Z,86.57
2022-12-25T12:40:58.055Z,86.26
2022-12-25T12:43:45.633Z,86.09
2022-12-25T12:46:50.700Z,86.72
2022-12-25T12:49:32.867Z,87.58
2022-12-25T12:52:20.765Z,88.19
2022-12-25T12:55:15.094Z,89.41
2022-12-25T12:57:42.970Z,90.54
2022-12-25T13:00:21.331Z,90.75
2022-12-25T13:03:01.100Z,91.47
2022-12-25T13:05:38.370Z,91.68
2022-12-25T13:08:25.290Z,92.56
2022-12-25T13:11:22.286Z,92.83
2022-12-25T13:13:52.742Z,93.25
2022-12-25T13:16:35.673Z,93.57
2022-12-25T13:19:12.822Z,94.06
2022-12-25T13:21:40.728Z,93.54
2022-12-25T13:24:20.836Z,93.77
2022-12-25T13:26:48.493Z,93.52
2022-12-25T13:29:38.238Z,93.06
2022-12-25T13:32:14.317Z,93.11
2022-12-25T13:34:43.164Z,93.03
2022-12-25T13:37:15.392Z,93.63
2022-12-25T13:40:01.372Z,93.36
2022-12-25T13:42:32.470Z,93.89
2022-12-25T13:45:08.145Z,93.52
2022-12-25T13:47:39.627Z,93.89
2022-12-25T13:50:15.207Z,93.46
2022-12-25T13:52:43.161Z,93.43
2022-12-25T13:55:17.166Z,93.00
2022-12-25T13:57:51.259Z,93.36
2022-12-25T14:00:21.873Z,92.87
2022-12-25T14:02:50.215Z,93.09
2022-12-25T14:05:42.850Z,93.78
2022-12-25T14:08:22.801Z,93.17
2022-12-25T14:10:52.696Z,93.50
2022-12-25T14:13:25.034Z,93.06
2022-12-25T14:15:53.899Z,93.53
2022-12-25T14:18:23.986Z,93.52
2022-12-25T14:21:05.776Z,93.02
2022-12-25T14:23:46.585Z,93.67
2022-12-25T14:26:22.779Z,93.03
2022-12-25T14:28:57.709Z,93.36
2022-12-25T14:31:28.632Z,93.95
2022-12-25T14:33:58.002Z,92.88
2022-12-25T14:36:26.618Z,93.34
2022-12-25T14:38:59.637Z,93.62
2022-12-25T14:41:37.906Z,93.88
2022-12-25T14:44:26.841Z,93.63
2022-12-25T14:47:15.762Z,93.39
2022-12-25T14:49:43.940Z,93.25
2022-12-25T14:52:19.227Z,93.00
2022-12-25T14:54:50.359Z,93.35
2022-12-25T14:57:27.936Z,93.75
2022-12-25T15:00:05.371Z,93.39
2022-12-25T15:02:44.991Z,93.38
2022-12-25T15:05:29.895Z,93.56
2022-12-25T15:08:24.616Z,93.69
2022-12-25T15:11:01.845Z,94.13
2022-12-25T15:13:31.093Z,93.76
2022-12-25T15:16:08.991Z,93.78
2022-12-25T15:18:41.985Z,93.61
2022-12-25T15:21:33.795Z,93.87
2022-12-25T15:24:01.841Z,94.61
2022-12-25T15:26:31.516Z,94.33
2022-12-25T15:28:59.455Z,94.29
2022-12-25T15:31:28.764Z,94.71
2022-12-25T15:33:58.405Z,94.48
2022-12-25T15:36:27.519Z,94.09
2022-12-25T15:38:55.743Z,94.95
2022-12-25T15:41:54.495Z,94.69
2022-12-25T15:44:22.641Z,94.42
2022-12-25T15:46:50.646Z,94.91
2022-12-25T15:49:18.372Z,95.30
2022-12-25T15:51:46.282Z,95.16
2022-12-25T15:54:14.032Z,95.44
2022-12-25T15:56:53.975Z,95.29
2022-12-25T15:59:23.285Z,95.01
2022-12-25T16:01:55.091Z,95.44
2022-12-25T16:04:24.317Z,94.98
2022-12-25T16:06:52.581Z,95.24
2022-12-25T16:09:21.271Z,94.90
2022-12-25T16:11:49.331Z,96.02
2022-12-25T16:14:17.019Z,95.43
2022-12-25T16:16:44.617Z,95.10
2022-12-25T16:19:12.165Z,95.69
2022-12-25T16:21:43.386Z,95.60
2022-12-25T16:24:11.157Z,95.79
2022-12-25T16:26:38.769Z,95.48
2022-12-25T16:29:07.937Z,95.92
2022-12-25T16:31:36.984Z,95.16
2022-12-25T16:34:06.505Z,95.51
2022-12-25T16:36:35.187Z,96.16
2022-12-25T16:39:04.262Z,95.24
2022-12-25T16:41:32.172Z,95.14
2022-12-25T16:44:10.666Z,95.25
2022-12-25T16:46:40.267Z,95.72
2022-12-25T16:49:08.795Z,95.31
2022-12-25T16:51:36.394Z,95.44
2022-12-25T16:54:04.182Z,95.31
2022-12-25T16:56:32.473Z,95.33
2022-12-25T16:59:01.139Z,95.01
2022-12-25T17:01:29.084Z,95.92
2022-12-25T17:04:01.650Z,95.16
2022-12-25T17:06:29.751Z,95.06
2022-12-25T17:09:00.003Z,95.41
2022-12-25T17:11:30.076Z,95.18
2022-12-25T17:13:59.949Z,95.71
2022-12-25T17:16:29.404Z,95.39
2022-12-25T17:19:08.063Z,95.43
2022-12-25T17:21:38.344Z,95.44
2022-12-25T17:24:06.806Z,95.37
2022-12-25T17:26:34.345Z,95.30
2022-12-25T17:29:02.529Z,95.65
2022-12-25T17:31:30.392Z,95.65
2022-12-25T17:34:00.577Z,95.67
2022-12-25T17:36:28.439Z,95.24
2022-12-25T17:38:56.257Z,95.74
2022-12-25T17:41:23.897Z,95.68
2022-12-25T17:43:51.528Z,96.04
2022-12-25T17:46:22.564Z,95.99
2022-12-25T17:48:51.988Z,95.55
2022-12-25T17:51:22.681Z,95.71
2022-12-25T17:53:55.096Z,95.62
2022-12-25T17:56:23.650Z,95.32
2022-12-25T17:58:53.184Z,95.28
2022-12-25T18:01:22.510Z,95.23
2022-12-25T18:03:51.022Z,95.22
2022-12-25T18:06:21.964Z,95.58
2022-12-25T18:08:50.022Z,95.16
2022-12-25T18:11:21.456Z,94.66
2022-12-25T18:13:52.266Z,94.67
2022-12-25T18:16:22.126Z,94.73
2022-12-25T18:18:52.534Z,94.69
2022-12-25T18:21:22.056Z,94.73
2022-12-25T18:23:50.423Z,94.86
2022-12-25T18:26:19.333Z,94.57
2022-12-25T18:28:48.694Z,95.06
2022-12-25T18:31:21.008Z,94.84
2022-12-25T18:33:49.690Z,94.86
2022-12-25T18:36:20.328Z,94.64
2022-12-25T18:38:49.735Z,94.19
2022-12-25T18:41:18.139Z,93.93
2022-12-25T18:43:54.284Z,94.03
2022-12-25T18:46:25.273Z,93.76
2022-12-25T18:48:55.251Z,93.77
2022-12-25T18:51:22.868Z,93.38
2022-12-25T18:53:51.669Z,93.56
2022-12-25T18:56:20.490Z,92.92
2022-12-25T18:58:48.368Z,92.71
2022-12-25T19:01:19.915Z,92.66
2022-12-25T19:03:49.407Z,92.46
2022-12-25T19:06:25.750Z,91.94
2022-12-25T19:08:55.527Z,91.78
2022-12-25T19:11:23.277Z,92.16
2022-12-25T19:13:51.028Z,92.18
2022-12-25T19:16:18.652Z,92.94
2022-12-25T19:18:46.399Z,92.81
2022-12-25T19:21:14.436Z,92.28
2022-12-25T19:23:44.101Z,92.35
2022-12-25T19:26:12.331Z,92.38
2022-12-25T19:28:40.483Z,91.91
2022-12-25T19:31:10.091Z,91.91
2022-12-25T19:33:41.879Z,92.57
2022-12-25T19:36:12.472Z,92.33
2022-12-25T19:38:40.798Z,92.38
2022-12-25T19:41:09.157Z,92.96
2022-12-25T19:43:39.330Z,92.91
2022-12-25T19:46:08.884Z,92.63
2022-12-25T19:48:37.624Z,92.87
2022-12-25T19:51:19.517Z,93.50
2022-12-25T19:53:47.769Z,93.30
2022-12-25T19:56:16.276Z,92.93
2022-12-25T19:58:44.757Z,93.54
2022-12-25T20:01:15.496Z,93.13
2022-12-25T20:03:46.948Z,93.46
2022-12-25T20:06:18.935Z,92.45
2022-12-25T20:08:47.374Z,92.72
2022-12-25T20:11:16.121Z,92.65
2022-12-25T20:13:43.943Z,93.12
2022-12-25T20:16:11.910Z,92.59
2022-12-25T20:18:40.294Z,93.21
2022-12-25T20:21:14.257Z,93.06
2022-12-25T20:23:47.189Z,93.03
2022-12-25T20:26:16.071Z,92.39
2022-12-25T20:28:44.112Z,92.84
2022-12-25T20:31:19.107Z,91.99
2022-12-25T20:33:46.983Z,92.92
2022-12-25T20:36:15.063Z,92.01
2022-12-25T20:38:42.637Z,92.36
2022-12-25T20:41:30.065Z,92.38
2022-12-25T20:43:58.447Z,92.52
2022-12-25T20:46:26.629Z,92.01
2022-12-25T20:48:54.566Z,92.76
2022-12-25T20:51:24.064Z,92.49
2022-12-25T20:53:52.174Z,92.11
2022-12-25T20:56:21.956Z,92.57
2022-12-25T20:58:58.189Z,92.88
2022-12-25T21:01:26.956Z,92.55
2022-12-25T21:03:54.949Z,93.29
2022-12-25T21:06:23.041Z,92.84
2022-12-25T21:08:50.692Z,93.57
2022-12-25T21:11:18.389Z,93.57
2022-12-25T21:13:46.965Z,93.64
2022-12-25T21:16:19.276Z,93.39
2022-12-25T21:18:48.208Z,93.60
2022-12-25T21:21:16.202Z,93.38
2022-12-25T21:23:45.724Z,93.80
2022-12-25T21:26:18.517Z,93.34
2022-12-25T21:28:51.143Z,93.31
2022-12-25T21:31:19.600Z,93.95
2022-12-25T21:33:53.734Z,92.96
2022-12-25T21:36:33.805Z,93.12
2022-12-25T21:39:05.873Z,92.81
2022-12-25T21:41:39.557Z,93.33
2022-12-25T21:44:08.436Z,93.45
2022-12-25T21:46:36.087Z,92.84
2022-12-25T21:49:04.196Z,93.16
2022-12-25T21:51:52.191Z,92.51
2022-12-25T21:54:21.966Z,93.84
2022-12-25T21:56:50.064Z,93.76
2022-12-25T21:59:22.644Z,92.97
2022-12-25T22:01:51.695Z,93.55
2022-12-25T22:04:21.766Z,93.16
2022-12-25T22:07:08.225Z,93.12
2022-12-25T22:09:36.078Z,92.58
2022-12-25T22:12:22.661Z,92.47
2022-12-25T22:14:54.156Z,91.60
2022-12-25T22:18:00.320Z,92.08
2022-12-25T22:20:30.829Z,91.35
2022-12-25T22:22:58.731Z,91.26
2022-12-25T22:25:26.431Z,90.35
2022-12-25T22:27:54.440Z,90.76
2022-12-25T22:30:28.360Z,90.46
2022-12-25T22:32:56.383Z,90.69
2022-12-25T22:35:24.026Z,90.52
2022-12-25T22:37:53.456Z,89.76
2022-12-25T22:40:21.855Z,89.85
2022-12-25T22:42:49.459Z,89.96
2022-12-25T22:45:17.313Z,89.79
2022-12-25T22:47:44.845Z,89.31
2022-12-25T22:50:15.131Z,89.89
2022-12-25T22:52:43.417Z,89.32
2022-12-25T22:55:18.633Z,89.53
2022-12-25T22:57:46.465Z,88.88
2022-12-25T23:00:14.331Z,89.60
2022-12-25T23:02:42.728Z,88.94
2022-12-25T23:05:10.462Z,88.93
2022-12-25T23:07:38.040Z,89.11
2022-12-25T23:10:06.790Z,89.08
2022-12-25T23:12:53.217Z,89.01
2022-12-25T23:15:20.852Z,88.77
2022-12-25T23:18:07.144Z,88.28
2022-12-25T23:20:55.687Z,88.38
2022-12-25T23:23:42.493Z,88.49
2022-12-25T23:26:11.233Z,88.67
2022-12-25T23:28:59.806Z,88.73
2022-12-25T23:31:31.729Z,88.32
2022-12-25T23:33:59.543Z,88.60
2022-12-25T23:36:28.420Z,88.23
2022-12-25T23:38:56.050Z,88.53
2022-12-25T23:41:23.554Z,88.38
2022-12-25T23:43:51.148Z,88.12
2022-12-25T23:46:19.285Z,88.08
2022-12-25T23:48:46.937Z,87.88
2022-12-25T23:51:14.475Z,88.24
2022-12-25T23:53:42.207Z,87.88
2022-12-25T23:56:10.644Z,88.06
2022-12-25T23:58:38.340Z,88.10
